createdAt,value
2019-04-10T00:02:16.158Z,21.17
2019-04-10T00:04:47.809Z,19.87
2019-04-10T00:07:19.823Z,19.62
2019-04-10T00:09:52.998Z,20.37
2019-04-10T00:12:25.442Z,19.42
2019-04-10T00:14:56.882Z,19.05
2019-04-10T00:17:29.157Z,19.90
2019-04-10T00:20:00.591Z,19.62
2019-04-10T00:22:32.486Z,18.80
2019-04-10T00:27:34.672Z,16.00
2019-04-10T00:30:06.955Z,17.55
2019-04-10T00:32:38.767Z,16.57
2019-04-10T00:38:05.202Z,15.23
2019-04-10T00:40:37.999Z,15.85
2019-04-10T00:43:09.310Z,14.78
2019-04-10T00:45:41.863Z,15.40
2019-04-10T00:48:13.214Z,15.08
2019-04-10T00:50:44.650Z,14.23
2019-04-10T00:53:16.996Z,14.43
2019-04-10T00:55:48.464Z,14.75
2019-04-10T00:58:20.373Z,14.93
2019-04-10T01:00:52.067Z,14.38
2019-04-10T01:06:13.670Z,15.32
2019-04-10T01:08:45.176Z,14.65
2019-04-10T01:11:17.111Z,13.35
2019-04-10T01:13:50.329Z,15.80
2019-04-10T01:16:23.091Z,14.07
2019-04-10T01:18:55.182Z,14.25
2019-04-10T01:21:27.194Z,14.25
2019-04-10T01:26:29.662Z,14.20
2019-04-10T01:29:01.148Z,14.18
2019-04-10T01:31:33.619Z,15.08
2019-04-10T01:34:05.426Z,14.38
2019-04-10T01:36:37.493Z,14.35
2019-04-10T01:39:13.902Z,14.58
2019-04-10T01:41:45.164Z,13.90
2019-04-10T01:44:17.054Z,14.23
2019-04-10T01:46:48.787Z,14.60
2019-04-10T01:49:21.718Z,14.80
2019-04-10T01:51:53.251Z,14.25
2019-04-10T01:54:25.017Z,15.53
2019-04-10T01:56:56.314Z,14.70
2019-04-10T01:59:29.918Z,14.55
2019-04-10T02:02:14.827Z,14.98
2019-04-10T02:04:46.347Z,14.55
2019-04-10T02:07:18.047Z,13.72
2019-04-10T02:09:49.805Z,15.43
2019-04-10T02:12:21.382Z,15.68
2019-04-10T02:14:53.043Z,15.15
2019-04-10T02:17:24.444Z,15.13
2019-04-10T02:19:56.724Z,14.95
2019-04-10T02:22:28.733Z,16.05
2019-04-10T02:25:00.171Z,16.17
2019-04-10T02:27:32.165Z,15.05
2019-04-10T02:30:07.723Z,16.77
2019-04-10T02:32:41.123Z,16.87
2019-04-10T02:35:16.965Z,15.72
2019-04-10T02:37:49.359Z,16.87
2019-04-10T02:40:19.345Z,17.55
2019-04-10T02:42:51.370Z,16.80
2019-04-10T02:45:24.181Z,18.05
2019-04-10T02:47:55.705Z,17.65
2019-04-10T02:50:27.313Z,18.05
2019-04-10T02:55:31.382Z,18.25
2019-04-10T02:58:03.382Z,18.90
2019-04-10T03:03:06.537Z,21.07
2019-04-10T03:05:38.405Z,19.55
2019-04-10T03:08:11.254Z,20.40
2019-04-10T03:10:49.416Z,19.10
2019-04-10T03:13:17.910Z,18.40
2019-04-10T03:15:49.835Z,19.00
2019-04-10T03:18:21.625Z,18.67
2019-04-10T03:20:52.959Z,18.35
2019-04-10T03:23:25.167Z,19.95
2019-04-10T03:25:57.311Z,20.35
2019-04-10T03:28:29.580Z,18.02
2019-04-10T03:31:03.452Z,19.15
2019-04-10T03:33:56.120Z,18.62
2019-04-10T03:36:36.387Z,17.92
2019-04-10T03:39:10.622Z,19.17
2019-04-10T03:41:42.494Z,18.57
2019-04-10T03:44:14.530Z,18.35
2019-04-10T03:46:46.931Z,18.00
2019-04-10T03:49:18.544Z,17.37
2019-04-10T03:51:49.769Z,17.32
2019-04-10T03:54:21.006Z,18.40
2019-04-10T03:56:52.637Z,17.48
2019-04-10T03:59:24.369Z,17.30
2019-04-10T04:04:26.748Z,16.80
2019-04-10T04:06:58.057Z,16.12
2019-04-10T04:09:29.719Z,16.97
2019-04-10T04:12:02.219Z,16.65
2019-04-10T04:14:34.451Z,15.88
2019-04-10T04:17:06.132Z,16.85
2019-04-10T04:19:37.976Z,16.55
2019-04-10T04:24:40.023Z,16.17
2019-04-10T04:27:13.236Z,14.98
2019-04-10T04:29:45.430Z,16.65
2019-04-10T04:32:17.622Z,15.68
2019-04-10T04:34:49.762Z,16.12
2019-04-10T04:37:23.367Z,15.40
2019-04-10T04:39:56.253Z,15.18
2019-04-10T04:42:28.692Z,15.18
2019-04-10T04:45:00.785Z,15.55
2019-04-10T04:47:33.473Z,15.35
2019-04-10T04:50:07.713Z,14.40
2019-04-10T04:52:39.162Z,14.20
2019-04-10T04:55:12.227Z,14.90
2019-04-10T04:57:44.966Z,14.60
2019-04-10T05:00:17.396Z,15.13
2019-04-10T05:02:49.039Z,15.78
2019-04-10T05:05:23.017Z,14.10
2019-04-10T05:07:59.647Z,13.72
2019-04-10T05:10:27.586Z,16.93
2019-04-10T05:12:59.951Z,17.05
2019-04-10T05:15:31.299Z,16.77
2019-04-10T05:18:02.546Z,21.15
2019-04-10T05:20:46.012Z,24.25
2019-04-10T05:23:26.641Z,27.42
2019-04-10T05:25:58.991Z,30.05
2019-04-10T05:28:32.753Z,27.05
2019-04-10T05:31:04.287Z,33.23
2019-04-10T05:33:36.597Z,34.25
2019-04-10T05:36:09.580Z,35.08
2019-04-10T05:41:12.083Z,36.28
2019-04-10T05:43:43.350Z,37.15
2019-04-10T05:46:16.520Z,39.48
2019-04-10T05:48:48.984Z,38.42
2019-04-10T05:51:21.267Z,38.83
2019-04-10T05:53:55.359Z,39.18
2019-04-10T05:56:27.866Z,40.67
2019-04-10T05:58:59.766Z,38.28
2019-04-10T06:04:03.571Z,39.58
2019-04-10T06:06:35.228Z,39.78
2019-04-10T06:09:09.206Z,39.08
2019-04-10T06:11:42.962Z,39.20
2019-04-10T06:14:14.270Z,39.27
2019-04-10T06:16:46.834Z,41.28
2019-04-10T06:19:18.530Z,40.52
2019-04-10T06:24:20.406Z,39.38
2019-04-10T06:29:24.806Z,39.05
2019-04-10T06:31:58.246Z,39.35
2019-04-10T06:34:30.139Z,40.20
2019-04-10T06:37:01.911Z,39.35
2019-04-10T06:40:06.071Z,40.80
2019-04-10T06:42:26.947Z,39.15
2019-04-10T06:44:58.978Z,40.83
2019-04-10T06:47:30.716Z,40.15
2019-04-10T06:50:04.352Z,40.10
2019-04-10T06:52:36.226Z,39.98
2019-04-10T06:57:46.911Z,40.65
2019-04-10T07:00:16.685Z,39.90
2019-04-10T07:02:47.943Z,39.15
2019-04-10T07:05:20.153Z,40.30
2019-04-10T07:07:56.667Z,38.00
2019-04-10T07:10:30.768Z,38.58
2019-04-10T07:12:59.559Z,39.70
2019-04-10T07:15:30.909Z,40.60
2019-04-10T07:18:03.017Z,39.45
2019-04-10T07:20:34.416Z,40.05
2019-04-10T07:23:05.693Z,40.58
2019-04-10T07:25:37.493Z,40.50
2019-04-10T07:28:10.812Z,40.70
2019-04-10T07:30:42.026Z,39.48
2019-04-10T07:33:16.543Z,39.08
2019-04-10T07:35:46.834Z,39.98
2019-04-10T07:38:21.038Z,39.10
2019-04-10T07:40:51.357Z,39.10
2019-04-10T07:43:26.160Z,39.85
2019-04-10T07:45:56.841Z,40.83
2019-04-10T07:48:29.429Z,39.03
2019-04-10T07:51:01.401Z,39.85
2019-04-10T07:56:07.590Z,38.98
2019-04-10T07:58:37.696Z,39.20
2019-04-10T08:01:11.803Z,41.05
2019-04-10T08:03:43.844Z,40.20
2019-04-10T08:06:15.450Z,37.55
2019-04-10T08:08:46.920Z,37.90
2019-04-10T08:11:19.675Z,38.95
2019-04-10T08:13:51.584Z,37.83
2019-04-10T08:16:23.370Z,39.40
2019-04-10T08:21:27.363Z,39.40
2019-04-10T08:23:58.970Z,40.03
2019-04-10T08:26:30.479Z,38.67
2019-04-10T08:29:01.942Z,38.40
2019-04-10T08:31:33.608Z,38.35
2019-04-10T08:34:06.571Z,39.63
2019-04-10T08:36:39.385Z,40.23
2019-04-10T08:39:10.984Z,38.88
2019-04-10T08:41:43.705Z,39.98
2019-04-10T08:44:15.625Z,40.65
2019-04-10T08:46:48.298Z,40.45
2019-04-10T08:49:21.274Z,39.60
2019-04-10T08:51:52.996Z,39.90
2019-04-10T08:54:25.906Z,41.05
2019-04-10T08:56:57.191Z,40.83
2019-04-10T08:59:29.902Z,39.33
2019-04-10T09:02:01.962Z,39.18
2019-04-10T09:04:33.713Z,39.48
2019-04-10T09:07:06.850Z,40.63
2019-04-10T09:09:39.456Z,39.55
2019-04-10T09:12:10.816Z,40.05
2019-04-10T09:14:42.002Z,39.67
2019-04-10T09:17:13.334Z,40.25
2019-04-10T09:19:44.634Z,41.95
2019-04-10T09:22:16.218Z,40.38
2019-04-10T09:27:17.839Z,40.15
2019-04-10T09:29:49.013Z,40.43
2019-04-10T09:32:20.229Z,40.65
2019-04-10T09:34:52.078Z,40.80
2019-04-10T09:37:24.149Z,41.88
2019-04-10T09:39:56.567Z,43.52
2019-04-10T09:42:27.876Z,43.08
2019-04-10T09:45:00.430Z,44.30
2019-04-10T09:47:32.524Z,43.52
2019-04-10T09:50:05.733Z,42.73
2019-04-10T09:52:37.615Z,43.50
2019-04-10T09:57:40.894Z,41.95
2019-04-10T10:00:14.166Z,43.02
2019-04-10T10:02:48.562Z,43.75
2019-04-10T10:05:22.276Z,42.03
2019-04-10T10:07:56.097Z,42.62
2019-04-10T10:10:27.184Z,41.98
2019-04-10T10:12:59.658Z,41.83
2019-04-10T10:15:31.422Z,42.48
2019-04-10T10:18:03.377Z,42.93
2019-04-10T10:20:35.638Z,43.23
2019-04-10T10:23:07.559Z,42.48
2019-04-10T10:28:11.769Z,41.25
2019-04-10T10:30:43.948Z,44.15
2019-04-10T10:33:15.385Z,44.75
2019-04-10T10:35:49.585Z,45.03
2019-04-10T10:38:23.088Z,45.48
2019-04-10T10:40:55.693Z,44.33
2019-04-10T10:43:27.289Z,43.05
2019-04-10T10:45:59.008Z,43.60
2019-04-10T10:48:31.581Z,44.08
2019-04-10T10:51:02.872Z,44.67
2019-04-10T10:53:34.549Z,44.67
2019-04-10T10:56:06.397Z,43.63
2019-04-10T10:58:37.796Z,45.98
2019-04-10T11:01:09.177Z,44.90
2019-04-10T11:03:41.018Z,48.73
2019-04-10T11:08:43.805Z,43.90
2019-04-10T11:11:15.602Z,46.33
2019-04-10T11:13:48.500Z,46.37
2019-04-10T11:16:20.668Z,46.08
2019-04-10T11:18:53.069Z,45.23
2019-04-10T11:21:24.776Z,46.02
2019-04-10T11:23:56.082Z,45.43
2019-04-10T11:26:30.258Z,45.25
2019-04-10T11:29:03.624Z,46.33
2019-04-10T11:31:35.758Z,45.40
2019-04-10T11:34:09.963Z,47.85
2019-04-10T11:36:42.516Z,46.63
2019-04-10T11:39:22.669Z,48.20
2019-04-10T11:41:50.302Z,47.40
2019-04-10T11:44:22.067Z,48.85
2019-04-10T11:46:56.778Z,48.65
2019-04-10T11:49:29.476Z,47.90
2019-04-10T11:52:03.393Z,48.73
2019-04-10T11:54:38.348Z,48.45
2019-04-10T11:57:07.813Z,48.38
2019-04-10T11:59:41.041Z,48.28
2019-04-10T12:02:14.279Z,50.33
2019-04-10T12:04:53.882Z,47.88
2019-04-10T12:07:53.118Z,48.65
2019-04-10T12:12:28.021Z,48.15
2019-04-10T12:14:59.725Z,47.05
2019-04-10T12:17:32.177Z,47.00
2019-04-10T12:20:04.718Z,48.98
2019-04-10T12:22:36.192Z,46.65
2019-04-10T12:25:10.253Z,46.98
2019-04-10T12:27:41.655Z,45.95
2019-04-10T12:30:33.439Z,47.58
2019-04-10T12:33:05.392Z,45.28
2019-04-10T12:35:38.138Z,43.68
2019-04-10T12:38:10.735Z,44.98
2019-04-10T12:40:42.741Z,44.48
2019-04-10T12:43:13.997Z,45.43
2019-04-10T12:45:46.445Z,44.10
2019-04-10T12:48:18.763Z,45.48
2019-04-10T12:50:50.197Z,44.53
2019-04-10T12:53:21.838Z,43.83
2019-04-10T12:55:53.554Z,43.87
2019-04-10T12:58:25.263Z,44.67
2019-04-10T13:00:58.302Z,43.63
2019-04-10T13:03:31.311Z,44.58
2019-04-10T13:06:03.003Z,45.45
2019-04-10T13:08:52.536Z,45.73
2019-04-10T13:11:10.021Z,44.18
2019-04-10T13:13:42.571Z,44.63
2019-04-10T13:16:14.211Z,45.20
2019-04-10T13:18:46.862Z,45.43
2019-04-10T13:21:20.141Z,46.48
2019-04-10T13:23:53.070Z,46.08
2019-04-10T13:26:24.666Z,43.87
2019-04-10T13:28:56.726Z,45.12
2019-04-10T13:31:27.979Z,44.15
2019-04-10T13:34:00.522Z,44.70
2019-04-10T13:36:31.987Z,45.10
2019-04-10T13:39:04.897Z,44.42
2019-04-10T13:41:36.755Z,45.03
2019-04-10T13:46:39.056Z,44.67
2019-04-10T13:49:11.322Z,44.15
2019-04-10T13:51:44.324Z,44.55
2019-04-10T13:54:16.528Z,47.08
2019-04-10T13:56:49.548Z,45.55
2019-04-10T13:59:20.853Z,46.02
2019-04-10T14:01:52.767Z,46.73
2019-04-10T14:04:25.066Z,46.05
2019-04-10T14:06:57.776Z,45.90
2019-04-10T14:09:38.806Z,47.60
2019-04-10T14:12:02.408Z,45.78
2019-04-10T14:14:33.711Z,44.70
2019-04-10T14:17:06.845Z,46.73
2019-04-10T14:19:39.460Z,45.48
2019-04-10T14:22:11.471Z,45.92
2019-04-10T14:24:45.290Z,46.10
2019-04-10T14:27:18.608Z,46.08
2019-04-10T14:29:51.051Z,46.23
2019-04-10T14:32:36.173Z,46.33
2019-04-10T14:35:09.867Z,43.70
2019-04-10T14:37:41.390Z,46.50
2019-04-10T14:40:15.816Z,45.90
2019-04-10T14:42:47.316Z,45.88
2019-04-10T14:45:19.378Z,44.35
2019-04-10T14:47:51.769Z,45.65
2019-04-10T14:50:23.977Z,46.70
2019-04-10T14:52:57.143Z,45.73
2019-04-10T14:55:29.281Z,46.45
2019-04-10T14:58:01.344Z,44.93
2019-04-10T15:00:39.202Z,44.95
2019-04-10T15:03:11.930Z,46.00
2019-04-10T15:05:50.236Z,46.63
2019-04-10T15:08:17.585Z,46.85
2019-04-10T15:10:50.533Z,47.25
2019-04-10T15:13:23.149Z,46.63
2019-04-10T15:15:55.381Z,47.38
2019-04-10T15:20:58.607Z,48.03
2019-04-10T15:23:29.902Z,47.93
2019-04-10T15:26:01.822Z,47.93
2019-04-10T15:28:34.131Z,48.45
2019-04-10T15:31:06.704Z,47.88
2019-04-10T15:33:39.324Z,50.60
2019-04-10T15:36:11.590Z,48.48
2019-04-10T15:38:44.347Z,47.90
2019-04-10T15:41:16.803Z,46.40
2019-04-10T15:43:48.288Z,48.73
2019-04-10T15:46:19.835Z,50.63
2019-04-10T15:48:52.875Z,50.88
2019-04-10T15:51:24.762Z,50.95
2019-04-10T15:56:26.258Z,48.45
2019-04-10T15:58:57.982Z,50.10
2019-04-10T16:04:00.921Z,48.58
2019-04-10T16:06:33.437Z,48.40
2019-04-10T16:09:07.198Z,49.67
2019-04-10T16:12:00.799Z,49.10
2019-04-10T16:14:33.282Z,50.33
2019-04-10T16:17:24.001Z,49.75
2019-04-10T16:20:05.051Z,48.28
2019-04-10T16:22:42.927Z,49.03
2019-04-10T16:25:22.998Z,50.23
2019-04-10T16:27:54.278Z,50.17
2019-04-10T16:30:28.434Z,48.40
2019-04-10T16:33:00.808Z,51.80
2019-04-10T16:35:35.441Z,50.03
2019-04-10T16:38:07.064Z,49.80
2019-04-10T16:40:38.403Z,48.85
2019-04-10T16:43:10.246Z,49.60
2019-04-10T16:45:42.494Z,50.95
2019-04-10T16:48:14.758Z,49.55
2019-04-10T16:50:46.375Z,51.53
2019-04-10T16:53:18.123Z,49.60
2019-04-10T16:58:20.422Z,48.15
2019-04-10T17:00:53.777Z,49.30
2019-04-10T17:03:25.530Z,52.17
2019-04-10T17:05:57.716Z,49.60
2019-04-10T17:08:30.044Z,49.13
2019-04-10T17:11:02.846Z,51.28
2019-04-10T17:13:34.944Z,50.85
2019-04-10T17:16:07.346Z,51.30
2019-04-10T17:18:39.256Z,52.27
2019-04-10T17:21:11.118Z,51.15
2019-04-10T17:26:14.853Z,51.23
2019-04-10T17:28:46.652Z,52.13
2019-04-10T17:31:18.265Z,51.80
2019-04-10T17:33:50.664Z,52.13
2019-04-10T17:36:23.268Z,51.90
2019-04-10T17:38:55.255Z,51.42
2019-04-10T17:41:27.978Z,51.48
2019-04-10T17:44:01.118Z,51.45
2019-04-10T17:46:33.472Z,54.05
2019-04-10T17:49:05.355Z,53.50
2019-04-10T17:54:07.728Z,53.73
2019-04-10T17:56:40.153Z,53.85
2019-04-10T17:59:11.464Z,53.30
2019-04-10T18:01:43.253Z,53.63
2019-04-10T18:04:15.951Z,53.28
2019-04-10T18:06:48.442Z,53.85
2019-04-10T18:09:21.386Z,53.48
2019-04-10T18:11:54.039Z,54.75
2019-04-10T18:14:27.051Z,54.77
2019-04-10T18:17:00.198Z,54.25
2019-04-10T18:19:32.369Z,53.95
2019-04-10T18:22:05.396Z,54.38
2019-04-10T18:24:38.887Z,54.45
2019-04-10T18:27:14.276Z,56.33
2019-04-10T18:29:46.285Z,54.55
2019-04-10T18:32:17.946Z,55.83
2019-04-10T18:37:24.851Z,55.38
2019-04-10T18:39:54.995Z,54.75
2019-04-10T18:42:26.784Z,55.80
2019-04-10T18:47:32.011Z,57.98
2019-04-10T18:50:04.520Z,55.23
2019-04-10T18:52:37.287Z,54.55
2019-04-10T18:55:09.993Z,54.80
2019-04-10T18:57:41.652Z,57.13
2019-04-10T19:00:46.263Z,56.18
2019-04-10T19:03:30.254Z,54.23
2019-04-10T19:06:04.583Z,56.18
2019-04-10T19:08:37.644Z,54.13
2019-04-10T19:11:20.009Z,54.90
2019-04-10T19:13:42.455Z,55.60
2019-04-10T19:16:15.216Z,55.15
2019-04-10T19:18:47.896Z,54.80
2019-04-10T19:21:20.043Z,54.73
2019-04-10T19:23:51.666Z,54.10
2019-04-10T19:26:23.446Z,54.30
2019-04-10T19:28:55.089Z,55.15
2019-04-10T19:31:27.659Z,55.40
2019-04-10T19:33:59.387Z,54.35
2019-04-10T19:36:32.823Z,53.42
2019-04-10T19:39:05.565Z,55.85
2019-04-10T19:41:39.835Z,53.92
2019-04-10T19:44:12.757Z,56.70
2019-04-10T19:46:45.930Z,57.58
2019-04-10T19:49:18.317Z,52.98
2019-04-10T19:51:50.783Z,55.80
2019-04-10T19:54:22.689Z,57.35
2019-04-10T19:56:55.048Z,54.00
2019-04-10T19:59:27.122Z,54.50
2019-04-10T20:02:00.294Z,53.85
2019-04-10T20:04:32.475Z,55.98
2019-04-10T20:07:04.855Z,54.77
2019-04-10T20:09:36.819Z,54.50
2019-04-10T20:12:10.572Z,55.48
2019-04-10T20:14:42.063Z,54.48
2019-04-10T20:17:13.544Z,55.55
2019-04-10T20:19:46.753Z,55.33
2019-04-10T20:22:18.835Z,56.33
2019-04-10T20:24:51.891Z,52.98
2019-04-10T20:27:36.156Z,54.60
2019-04-10T20:30:08.289Z,57.83
2019-04-10T20:32:39.952Z,55.10
2019-04-10T20:35:12.243Z,56.15
2019-04-10T20:37:44.932Z,55.30
2019-04-10T20:40:19.123Z,55.50
2019-04-10T20:42:51.388Z,55.60
2019-04-10T20:45:23.484Z,57.43
2019-04-10T20:47:54.774Z,57.20
2019-04-10T20:50:26.363Z,55.30
2019-04-10T20:52:58.255Z,53.98
2019-04-10T20:55:30.007Z,56.95
2019-04-10T20:58:03.447Z,55.58
2019-04-10T21:00:41.025Z,56.70
2019-04-10T21:03:13.547Z,57.20
2019-04-10T21:05:46.441Z,55.28
2019-04-10T21:08:18.151Z,56.60
2019-04-10T21:10:49.391Z,58.17
2019-04-10T21:13:22.068Z,59.48
2019-04-10T21:16:05.530Z,58.30
2019-04-10T21:18:37.736Z,56.25
2019-04-10T21:21:10.195Z,58.95
2019-04-10T21:23:42.155Z,57.27
2019-04-10T21:28:45.738Z,57.05
2019-04-10T21:31:36.350Z,53.85
2019-04-10T21:34:17.621Z,56.45
2019-04-10T21:36:49.430Z,57.13
2019-04-10T21:39:21.194Z,56.50
2019-04-10T21:41:53.514Z,57.93
2019-04-10T21:44:24.797Z,55.35
2019-04-10T21:46:57.211Z,54.98
2019-04-10T21:49:28.617Z,56.20
2019-04-10T21:52:11.585Z,54.73
2019-04-10T21:54:49.724Z,56.33
2019-04-10T21:57:18.164Z,54.77
2019-04-10T21:59:49.686Z,56.30
2019-04-10T22:02:21.619Z,54.77
2019-04-10T22:04:52.883Z,55.15
2019-04-10T22:07:43.146Z,55.92
2019-04-10T22:10:25.993Z,56.85
2019-04-10T22:12:57.671Z,57.08
2019-04-10T22:18:12.842Z,55.12
2019-04-10T22:20:44.673Z,57.40
2019-04-10T22:23:16.431Z,58.02
2019-04-10T22:25:48.626Z,57.00
2019-04-10T22:28:21.101Z,56.20
2019-04-10T22:30:54.702Z,58.23
2019-04-10T22:33:27.815Z,54.80
2019-04-10T22:36:00.208Z,54.85
2019-04-10T22:38:31.915Z,54.38
2019-04-10T22:41:12.318Z,54.88
2019-04-10T22:43:36.890Z,58.33
2019-04-10T22:46:08.915Z,56.63
2019-04-10T22:48:41.671Z,53.45
2019-04-10T22:51:15.006Z,56.25
2019-04-10T22:53:47.879Z,56.10
2019-04-10T22:56:19.321Z,56.63
2019-04-10T22:58:51.166Z,57.48
2019-04-10T23:01:22.891Z,57.62
2019-04-10T23:03:55.133Z,55.95
2019-04-10T23:06:26.458Z,54.83
2019-04-10T23:08:58.107Z,56.05
2019-04-10T23:14:01.177Z,54.13
2019-04-10T23:16:33.151Z,56.25
2019-04-10T23:19:05.721Z,56.68
2019-04-10T23:21:38.732Z,53.80
2019-04-10T23:24:10.022Z,56.00
2019-04-10T23:26:41.629Z,57.60
2019-04-10T23:29:13.941Z,53.78
2019-04-10T23:31:45.832Z,56.40
2019-04-10T23:34:19.192Z,53.30
2019-04-10T23:36:50.802Z,55.75
2019-04-10T23:39:22.068Z,54.58
2019-04-10T23:41:53.434Z,54.75
2019-04-10T23:44:25.116Z,54.93
2019-04-10T23:46:57.787Z,54.10
2019-04-10T23:49:29.921Z,54.25
2019-04-10T23:52:01.361Z,54.88
2019-04-10T23:54:44.028Z,52.08
2019-04-10T23:57:15.215Z,54.25
2019-04-10T23:59:46.792Z,52.05
